Terminal Aerodrome Forecast
Issued by NWS

Home | Current Version | Previous Version | Text Only | Print | Product List | Glossary On
Versions: 1 2 3 4 5 6 7 8 9 10 11 12 13 14 15 16 17 18 19 20 21 22 23 24 25 26 27 28 29 30
566
FTUS41 KRNK 230534 AAA
TAFLWB
TAF AMD
KLWB 230534Z 2306/2406 VRB03KT P6SM OVC045
     FM231100 09005KT P6SM OVC025
     FM231400 10007KT P6SM -SHRA OVC025
     FM240000 14011KT 1SM +SHRA OVC030
     FM240300 19008KT 3SM SHRA OVC050=

USA.gov is the U.S. government's official web portal to all federal, state and local government web resources and services.